Time;durP1;ratioP1;P1;durP2;ratioP2;P2;SDS_P1;SDS_P2;PMS_P1;PMS_P2;Temp;Humidity;BMP_temperature;BMP_pressure;BME280_temperature;BME280_humidity;BME280_pressure;Samples;Min_cycle;Max_cycle;Signal;HPM_P1;HPM_P2
2022/01/24 00:01:17;;;;;;;14.53;7.07;;;3.40;99.90;;;;;;5021628;28;20465;-71
2022/01/24 00:03:42;;;;;;;11.13;6.50;;;3.30;99.90;;;;;;5017559;28;20683;-70
2022/01/24 00:06:11;;;;;;;9.40;5.83;;;3.70;99.90;;;;;;5018707;28;20188;-69
2022/01/24 00:08:36;;;;;;;8.40;4.93;;;3.30;99.90;;;;;;5028143;28;20257;-71
2022/01/24 00:11:07;;;;;;;8.33;5.17;;;3.30;99.90;;;;;;5028645;28;20536;-70
2022/01/24 00:14:18;;;;;;;7.23;4.43;;;3.20;99.90;;;;;;5030197;28;20227;-72
2022/01/24 00:26:53;;;;;;;6.93;4.30;;;3.10;99.90;;;;;;5028848;28;20467;-70
2022/01/24 00:29:20;;;;;;;6.37;4.30;;;3.00;99.90;;;;;;5029619;28;20460;-70
2022/01/24 00:31:46;;;;;;;6.73;4.33;;;2.90;99.90;;;;;;5028390;28;20498;-69
2022/01/24 00:34:13;;;;;;;5.20;3.77;;;2.90;99.90;;;;;;5029559;28;21185;-70
2022/01/24 00:36:40;;;;;;;6.93;4.10;;;2.90;99.90;;;;;;5033937;28;20918;-70
2022/01/24 00:39:06;;;;;;;5.00;4.00;;;2.80;99.90;;;;;;5036761;28;20440;-71
2022/01/24 00:41:37;;;;;;;4.80;4.20;;;3.00;99.90;;;;;;5026762;28;20441;-70
2022/01/24 00:46:55;;;;;;;5.60;3.70;;;3.20;99.90;;;;;;5028150;28;20416;-69
2022/01/24 00:49:45;;;;;;;5.90;4.00;;;3.30;99.90;;;;;;5029543;28;20455;-70
2022/01/24 00:54:53;;;;;;;4.27;3.57;;;3.40;99.90;;;;;;5029143;28;20415;-70
2022/01/24 00:57:20;;;;;;;4.70;4.20;;;3.40;99.90;;;;;;5028336;28;20409;-71
2022/01/24 00:59:46;;;;;;;5.33;4.07;;;3.50;99.90;;;;;;5029860;28;20400;-70
2022/01/24 01:02:12;;;;;;;5.03;3.50;;;3.50;99.90;;;;;;5021708;28;20555;-69
2022/01/24 01:04:59;;;;;;;5.13;3.23;;;3.50;99.90;;;;;;5022496;28;20507;-71
2022/01/24 01:07:39;;;;;;;3.40;3.03;;;3.60;99.90;;;;;;5027336;28;20602;-70
2022/01/24 01:18:21;;;;;;;4.50;3.43;;;3.70;99.90;;;;;;5009581;28;20409;-71
2022/01/24 01:23:31;;;;;;;6.93;3.60;;;3.70;99.90;;;;;;5028604;28;20193;-71
2022/01/24 01:25:59;;;;;;;4.63;3.50;;;3.60;99.90;;;;;;5027372;28;20437;-69
2022/01/24 01:28:26;;;;;;;3.97;3.40;;;3.70;99.90;;;;;;5028355;28;20428;-70
2022/01/24 01:30:56;;;;;;;3.53;3.13;;;3.80;99.90;;;;;;5027972;28;21165;-70
2022/01/24 01:38:47;;;;;;;4.00;3.20;;;4.10;99.90;;;;;;5039673;28;20428;-70
2022/01/24 01:54:56;;;;;;;3.40;3.10;;;4.10;99.90;;;;;;5028423;28;20428;-71
2022/01/24 01:57:23;;;;;;;4.30;3.27;;;4.10;99.90;;;;;;5027110;28;20435;-71
2022/01/24 01:59:49;;;;;;;3.33;3.03;;;4.10;99.90;;;;;;5027908;28;20447;-70
2022/01/24 02:02:15;;;;;;;4.07;3.00;;;4.20;99.90;;;;;;5027201;28;20613;-69
2022/01/24 02:04:41;;;;;;;3.47;3.03;;;4.60;99.90;;;;;;5027651;28;20182;-70
2022/01/24 02:07:12;;;;;;;3.33;3.03;;;4.60;99.90;;;;;;5023489;28;20436;-69
2022/01/24 02:09:40;;;;;;;4.37;2.70;;;4.20;99.90;;;;;;5027958;28;20432;-70
2022/01/24 02:12:06;;;;;;;3.10;2.80;;;4.20;99.90;;;;;;5026301;28;20444;-70
2022/01/24 02:14:36;;;;;;;3.23;2.93;;;4.30;99.90;;;;;;5028138;28;20798;-70
2022/01/24 02:17:09;;;;;;;3.60;3.00;;;4.30;99.90;;;;;;5026733;28;20444;-70
2022/01/24 02:19:51;;;;;;;3.13;2.70;;;4.40;99.90;;;;;;5027142;28;20420;-71
2022/01/24 02:22:40;;;;;;;4.47;3.30;;;4.40;99.90;;;;;;5021720;28;20448;-70
2022/01/24 02:25:11;;;;;;;4.40;2.60;;;4.30;99.90;;;;;;5027187;28;20511;-71
2022/01/24 02:27:47;;;;;;;3.37;2.80;;;4.30;99.90;;;;;;5024281;28;20425;-69
2022/01/24 02:30:38;;;;;;;5.27;3.40;;;4.20;99.90;;;;;;5026204;28;20479;-70
2022/01/24 02:33:01;;;;;;;3.57;3.00;;;4.60;99.90;;;;;;5026885;28;20972;-71
2022/01/24 02:35:26;;;;;;;4.30;3.13;;;4.50;99.90;;;;;;5026356;28;20519;-70
2022/01/24 02:37:52;;;;;;;3.27;2.90;;;4.10;99.90;;;;;;5039504;28;20173;-71
2022/01/24 02:40:20;;;;;;;4.07;2.73;;;4.10;99.90;;;;;;5029537;28;20611;-70
2022/01/24 02:48:33;;;;;;;3.77;3.00;;;4.00;99.90;;;;;;4985708;28;20421;-70
2022/01/24 02:54:02;;;;;;;3.40;2.53;;;4.30;99.90;;;;;;4981670;28;20488;-70
2022/01/24 02:56:27;;;;;;;4.17;3.20;;;3.90;99.90;;;;;;5017313;28;20913;-71
2022/01/24 02:58:53;;;;;;;4.30;3.50;;;3.90;99.90;;;;;;5026223;28;20189;-72
2022/01/24 03:01:18;;;;;;;4.60;3.50;;;3.90;99.90;;;;;;5026728;28;20190;-70
2022/01/24 03:03:44;;;;;;;5.87;3.10;;;4.20;99.90;;;;;;5025678;28;20303;-71
2022/01/24 03:06:09;;;;;;;4.23;2.97;;;3.80;99.90;;;;;;5027730;28;20164;-72
2022/01/24 03:08:38;;;;;;;4.00;3.33;;;3.80;99.90;;;;;;5038971;28;20575;-70
2022/01/24 03:11:04;;;;;;;3.10;2.80;;;3.90;99.90;;;;;;5046403;28;20682;-71
2022/01/24 03:13:35;;;;;;;3.80;3.13;;;3.90;99.90;;;;;;5038194;28;20446;-70
2022/01/24 03:16:04;;;;;;;5.30;3.47;;;3.80;99.90;;;;;;5026075;28;20174;-71
2022/01/24 03:18:30;;;;;;;3.47;3.07;;;3.80;99.90;;;;;;5038745;28;20455;-70
2022/01/24 03:20:56;;;;;;;3.53;3.23;;;3.70;99.90;;;;;;5023365;28;20851;-71
2022/01/24 03:23:23;;;;;;;4.63;3.67;;;3.80;99.90;;;;;;5025948;28;20420;-71
2022/01/24 03:25:49;;;;;;;3.83;3.00;;;3.70;99.90;;;;;;5031356;28;20635;-70
2022/01/24 03:28:15;;;;;;;3.40;3.10;;;3.60;99.90;;;;;;5028526;28;20461;-70
2022/01/24 03:30:41;;;;;;;4.63;3.47;;;3.60;99.90;;;;;;5026086;28;20476;-71
2022/01/24 03:33:07;;;;;;;4.50;3.40;;;3.60;99.90;;;;;;5026838;28;20265;-71
2022/01/24 03:35:34;;;;;;;4.03;3.63;;;3.50;99.90;;;;;;5027303;28;20435;-70
2022/01/24 03:38:00;;;;;;;4.80;3.77;;;3.40;99.90;;;;;;5031101;28;20883;-70
2022/01/24 03:40:26;;;;;;;4.07;3.67;;;3.40;99.90;;;;;;5029179;28;20523;-70
2022/01/24 03:42:52;;;;;;;4.43;3.63;;;3.40;99.90;;;;;;5029902;28;20507;-69
2022/01/24 03:45:25;;;;;;;3.93;3.53;;;3.30;99.90;;;;;;5030132;28;20189;-70
2022/01/24 03:48:06;;;;;;;4.57;3.40;;;3.30;99.90;;;;;;5028445;28;20276;-70
2022/01/24 03:50:32;;;;;;;4.30;3.43;;;3.30;99.90;;;;;;5028340;28;20475;-70
2022/01/24 03:52:58;;;;;;;5.20;3.80;;;3.60;99.90;;;;;;5030221;28;20428;-70
2022/01/24 03:55:23;;;;;;;5.80;3.37;;;3.40;99.90;;;;;;5030043;28;20173;-70
2022/01/24 03:57:49;;;;;;;10.00;3.60;;;3.10;99.90;;;;;;5028497;28;20714;-72
2022/01/24 04:00:14;;;;;;;5.10;3.70;;;4.10;99.90;;;;;;5030017;28;20174;-71
2022/01/24 04:02:41;;;;;;;4.90;3.77;;;3.20;99.90;;;;;;5029531;28;20580;-70
2022/01/24 04:05:07;;;;;;;4.03;3.47;;;3.50;99.90;;;;;;5030498;28;20227;-70
2022/01/24 04:07:33;;;;;;;7.50;3.90;;;3.20;99.90;;;;;;5023478;28;20428;-71
2022/01/24 04:10:05;;;;;;;4.30;3.70;;;3.60;99.90;;;;;;5029992;28;20464;-71
2022/01/24 04:12:31;;;;;;;7.03;3.57;;;3.20;99.90;;;;;;5029077;28;20448;-71
2022/01/24 04:15:10;;;;;;;4.50;3.60;;;3.50;99.90;;;;;;5028657;28;20432;-71
2022/01/24 04:17:43;;;;;;;4.57;4.10;;;3.10;99.90;;;;;;5021837;28;20424;-71
2022/01/24 04:22:55;;;;;;;3.97;3.33;;;3.10;99.90;;;;;;5031132;28;20497;-70
2022/01/24 04:25:23;;;;;;;4.63;3.70;;;3.10;99.90;;;;;;5028339;28;20507;-70
2022/01/24 04:27:54;;;;;;;6.27;3.90;;;3.10;99.90;;;;;;5029122;28;20429;-71
2022/01/24 04:30:21;;;;;;;5.60;4.03;;;3.10;99.90;;;;;;5029214;28;20491;-69
2022/01/24 04:32:47;;;;;;;4.87;3.33;;;3.60;99.90;;;;;;5029454;28;20784;-72
2022/01/24 04:35:13;;;;;;;9.13;4.00;;;3.00;99.90;;;;;;5029026;28;20415;-71
2022/01/24 04:37:39;;;;;;;4.40;3.70;;;3.00;99.90;;;;;;5029385;28;20181;-71
2022/01/24 04:40:06;;;;;;;5.10;3.73;;;3.00;99.90;;;;;;5030104;28;20455;-71
2022/01/24 04:42:45;;;;;;;4.63;4.00;;;3.00;99.90;;;;;;5027223;28;20756;-72
2022/01/24 04:45:29;;;;;;;4.70;4.00;;;3.00;99.90;;;;;;5028210;28;20425;-71
2022/01/24 04:50:46;;;;;;;4.67;4.00;;;3.00;99.90;;;;;;5011421;28;20473;-72
2022/01/24 04:53:46;;;;;;;5.50;3.93;;;3.00;99.90;;;;;;5028444;28;20425;-71
2022/01/24 04:56:12;;;;;;;4.97;4.30;;;3.00;99.90;;;;;;5018071;28;20405;-71
2022/01/24 04:58:37;;;;;;;5.13;4.20;;;2.90;99.90;;;;;;5029391;28;20432;-70
2022/01/24 05:01:03;;;;;;;6.13;4.00;;;2.90;99.90;;;;;;5029318;28;20186;-71
2022/01/24 05:03:28;;;;;;;6.27;4.27;;;2.80;99.90;;;;;;5028943;28;20257;-70
2022/01/24 05:05:54;;;;;;;6.20;4.57;;;2.90;99.90;;;;;;5027954;28;20323;-71
2022/01/24 05:08:19;;;;;;;8.70;4.70;;;2.70;99.90;;;;;;5028616;28;20200;-70
2022/01/24 05:11:04;;;;;;;4.97;4.37;;;2.60;99.90;;;;;;5028824;28;20213;-71
2022/01/24 05:24:16;;;;;;;6.77;5.37;;;2.30;99.90;;;;;;5027846;28;20437;-71
2022/01/24 05:26:42;;;;;;;6.53;4.97;;;2.40;99.90;;;;;;5027439;28;20431;-72
2022/01/24 05:29:07;;;;;;;7.63;5.37;;;2.40;99.90;;;;;;5028714;28;20170;-71
2022/01/24 05:31:33;;;;;;;8.03;5.47;;;2.40;99.90;;;;;;5027823;28;20214;-71
2022/01/24 05:33:58;;;;;;;11.97;6.07;;;2.70;99.90;;;;;;5029556;28;20170;-72
2022/01/24 05:36:24;;;;;;;6.80;5.80;;;2.40;99.90;;;;;;5040332;28;20579;-71
2022/01/24 05:38:49;;;;;;;9.97;5.80;;;2.40;99.90;;;;;;5035938;28;20170;-71
2022/01/24 05:41:16;;;;;;;10.00;6.30;;;4.10;99.90;;;;;;5027905;28;20197;-72
2022/01/24 05:43:41;;;;;;;10.70;6.50;;;2.50;99.90;;;;;;5027764;28;20182;-71
2022/01/24 05:46:07;;;;;;;10.73;6.60;;;2.40;99.90;;;;;;5027433;28;20432;-71
2022/01/24 05:48:32;;;;;;;9.87;6.57;;;2.40;99.90;;;;;;5027438;28;20193;-71
2022/01/24 05:50:58;;;;;;;9.20;6.70;;;2.40;99.90;;;;;;5028629;28;20932;-71
2022/01/24 05:53:23;;;;;;;11.40;7.30;;;2.40;99.90;;;;;;5028478;28;20235;-72
2022/01/24 05:55:49;;;;;;;11.63;7.13;;;3.40;99.90;;;;;;5027852;28;20618;-70
2022/01/24 05:58:14;;;;;;;10.87;7.50;;;2.50;99.90;;;;;;5028255;28;20186;-71
2022/01/24 06:00:40;;;;;;;9.33;7.20;;;2.50;99.90;;;;;;5026750;28;20624;-71
2022/01/24 06:03:05;;;;;;;11.33;7.17;;;2.80;99.90;;;;;;5023016;28;20217;-70
2022/01/24 06:05:31;;;;;;;11.37;7.53;;;2.70;99.90;;;;;;5027667;28;20166;-71
2022/01/24 06:07:57;;;;;;;11.63;7.43;;;2.40;99.90;;;;;;5028601;28;20197;-71
2022/01/24 06:10:22;;;;;;;13.77;9.30;;;2.20;99.90;;;;;;5027605;28;20217;-70
2022/01/24 06:12:48;;;;;;;18.20;10.07;;;2.20;99.90;;;;;;5026054;28;20186;-70
2022/01/24 06:15:14;;;;;;;11.90;7.87;;;2.10;99.90;;;;;;5027220;28;20182;-70
2022/01/24 06:17:40;;;;;;;16.13;8.17;;;2.10;99.90;;;;;;5028110;28;20178;-71
2022/01/24 06:20:06;;;;;;;10.57;6.93;;;2.00;99.90;;;;;;5026364;28;20772;-71
2022/01/24 06:22:32;;;;;;;9.43;7.57;;;2.00;99.90;;;;;;5027511;28;20201;-70
2022/01/24 06:24:57;;;;;;;8.17;6.30;;;2.00;99.90;;;;;;5027834;28;20421;-71
2022/01/24 06:27:23;;;;;;;7.60;5.83;;;1.90;99.90;;;;;;5027056;28;20248;-70
2022/01/24 06:29:48;;;;;;;9.20;6.20;;;1.60;99.90;;;;;;5027244;28;21647;-71
2022/01/24 06:32:14;;;;;;;8.93;6.10;;;1.80;99.90;;;;;;5027055;28;20197;-70
2022/01/24 06:34:40;;;;;;;9.37;6.60;;;1.80;99.90;;;;;;5027855;28;20166;-70
2022/01/24 06:37:06;;;;;;;13.13;6.90;;;1.80;99.90;;;;;;5026550;28;20193;-70
2022/01/24 06:39:31;;;;;;;12.17;7.30;;;1.70;99.90;;;;;;5028076;28;20780;-70
2022/01/24 06:42:30;;;;;;;12.30;7.20;;;1.60;99.90;;;;;;5027117;28;20527;-70
2022/01/24 06:44:50;;;;;;;13.53;7.47;;;1.60;99.90;;;;;;5016638;28;20504;-71
2022/01/24 06:47:16;;;;;;;11.80;7.40;;;1.60;99.90;;;;;;5018604;28;20432;-69
2022/01/24 06:49:41;;;;;;;15.57;7.83;;;1.50;99.90;;;;;;5025497;28;20652;-70
2022/01/24 06:52:07;;;;;;;12.90;7.77;;;1.50;99.90;;;;;;5021978;28;20194;-70
2022/01/24 06:54:37;;;;;;;11.00;7.40;;;1.50;99.90;;;;;;5027082;28;20879;-71
2022/01/24 06:57:03;;;;;;;14.97;8.67;;;1.50;99.90;;;;;;5026829;28;20245;-71
2022/01/24 06:59:29;;;;;;;9.80;6.63;;;1.40;99.90;;;;;;5027576;28;20740;-71
2022/01/24 07:01:54;;;;;;;12.00;7.50;;;1.50;99.90;;;;;;5026964;28;20493;-70
2022/01/24 07:04:20;;;;;;;14.80;7.83;;;1.60;99.90;;;;;;5027376;28;20185;-70
2022/01/24 07:06:46;;;;;;;13.10;8.73;;;1.40;99.90;;;;;;5027390;28;20201;-71
2022/01/24 07:09:12;;;;;;;14.47;7.70;;;1.60;99.90;;;;;;5027175;28;20198;-70
2022/01/24 07:11:38;;;;;;;11.80;8.10;;;1.70;99.90;;;;;;5027058;28;20705;-71
2022/01/24 07:14:07;;;;;;;13.80;8.53;;;1.90;99.90;;;;;;5029389;28;20514;-72
2022/01/24 07:17:00;;;;;;;14.20;8.10;;;1.90;99.90;;;;;;5030769;28;20824;-70
2022/01/24 07:19:32;;;;;;;9.87;7.23;;;2.20;99.90;;;;;;5031312;28;20443;-70
2022/01/24 07:21:59;;;;;;;13.23;8.13;;;2.10;99.90;;;;;;5029387;28;20448;-70
2022/01/24 07:24:25;;;;;;;12.73;7.93;;;2.50;99.90;;;;;;5027680;28;20435;-70
2022/01/24 07:26:51;;;;;;;12.20;7.80;;;2.20;99.90;;;;;;5027334;28;20515;-73
2022/01/24 07:29:18;;;;;;;10.53;6.73;;;2.20;99.90;;;;;;5030673;28;20424;-71
2022/01/24 07:31:44;;;;;;;12.30;7.03;;;2.60;99.90;;;;;;5030576;28;20464;-71
2022/01/24 07:34:10;;;;;;;11.70;6.87;;;2.10;99.90;;;;;;5030533;28;20421;-70
2022/01/24 07:36:35;;;;;;;17.10;8.07;;;2.20;99.90;;;;;;5030714;28;20494;-70
2022/01/24 07:39:01;;;;;;;8.63;5.87;;;2.20;99.90;;;;;;5031042;28;20208;-71
2022/01/24 07:41:29;;;;;;;12.53;6.10;;;2.20;99.90;;;;;;5030773;28;20706;-71
2022/01/24 07:43:55;;;;;;;7.50;5.70;;;2.20;99.90;;;;;;5031356;28;20200;-71
2022/01/24 07:46:21;;;;;;;7.07;5.03;;;2.10;99.90;;;;;;5029956;28;20420;-71
2022/01/24 07:48:47;;;;;;;6.23;4.83;;;2.10;99.90;;;;;;5029439;28;20429;-71
2022/01/24 07:51:12;;;;;;;11.40;5.80;;;2.10;99.90;;;;;;5029126;28;20460;-72
2022/01/24 07:53:38;;;;;;;9.33;6.17;;;2.20;99.90;;;;;;5031100;28;20177;-70
2022/01/24 07:56:05;;;;;;;10.97;5.70;;;2.10;99.90;;;;;;5029810;28;20272;-70
2022/01/24 07:58:31;;;;;;;11.73;5.90;;;2.40;99.90;;;;;;5031647;28;20236;-70
2022/01/24 08:00:56;;;;;;;11.30;7.30;;;2.60;99.90;;;;;;5029536;28;20428;-71
2022/01/24 08:03:22;;;;;;;9.77;6.80;;;2.70;99.90;;;;;;5030261;28;20450;-71
2022/01/24 08:05:48;;;;;;;8.20;6.27;;;2.90;99.90;;;;;;5031028;28;20174;-71
2022/01/24 08:08:13;;;;;;;11.17;7.07;;;3.20;99.90;;;;;;5028584;28;20265;-72
2022/01/24 08:10:39;;;;;;;12.07;6.43;;;3.60;99.90;;;;;;5030091;28;20205;-71
2022/01/24 08:13:06;;;;;;;12.33;6.50;;;3.60;99.90;;;;;;5031070;28;20557;-74
2022/01/24 08:15:32;;;;;;;12.40;6.70;;;3.80;99.90;;;;;;5029170;28;20439;-71
2022/01/24 08:17:57;;;;;;;9.33;7.10;;;3.90;99.90;;;;;;5030886;28;20185;-70
2022/01/24 08:20:23;;;;;;;11.07;7.50;;;4.20;99.90;;;;;;5030638;28;21026;-71
2022/01/24 08:22:49;;;;;;;11.13;6.53;;;4.20;99.90;;;;;;5029718;28;20623;-72
2022/01/24 08:25:15;;;;;;;9.37;6.70;;;4.70;99.90;;;;;;5024649;28;20624;-71
2022/01/24 08:27:41;;;;;;;11.23;7.00;;;4.60;99.90;;;;;;5028496;28;20524;-71
2022/01/24 08:30:10;;;;;;;9.40;7.00;;;5.00;99.90;;;;;;5032811;28;20914;-72
2022/01/24 08:32:36;;;;;;;14.93;6.87;;;5.20;99.90;;;;;;5023761;28;20468;-71
2022/01/24 08:35:03;;;;;;;9.40;6.60;;;5.30;99.90;;;;;;5017451;28;20456;-72
2022/01/24 08:37:28;;;;;;;11.60;6.93;;;5.10;99.90;;;;;;5029490;28;20170;-71
2022/01/24 08:39:56;;;;;;;9.23;6.53;;;5.60;99.90;;;;;;5030511;28;20475;-70
2022/01/24 08:47:27;;;;;;;6.80;5.90;;;5.50;99.90;;;;;;5029102;28;21263;-72
2022/01/24 08:49:53;;;;;;;10.20;6.13;;;5.70;99.90;;;;;;5024624;28;20443;-71
2022/01/24 08:52:19;;;;;;;10.60;6.20;;;5.90;99.90;;;;;;5029428;28;20440;-72
2022/01/24 08:54:45;;;;;;;9.50;6.60;;;6.00;99.90;;;;;;5027583;28;20185;-72
2022/01/24 08:57:13;;;;;;;9.87;7.53;;;6.20;99.90;;;;;;5027447;28;20416;-72
2022/01/24 08:59:39;;;;;;;9.57;6.90;;;6.30;99.90;;;;;;5025778;28;20653;-73
2022/01/24 09:02:05;;;;;;;10.50;7.00;;;6.30;99.90;;;;;;5025379;28;20870;-71
2022/01/24 09:04:30;;;;;;;10.43;7.33;;;6.30;99.90;;;;;;5030859;28;20452;-70
2022/01/24 09:07:00;;;;;;;12.03;6.90;;;6.80;99.90;;;;;;5025924;28;20178;-71
2022/01/24 09:09:25;;;;;;;8.83;6.43;;;6.40;99.90;;;;;;5025397;28;20189;-73
2022/01/24 09:11:52;;;;;;;11.53;6.63;;;6.50;99.90;;;;;;5028203;28;21044;-72
2022/01/24 09:14:17;;;;;;;10.30;7.33;;;6.40;99.90;;;;;;5028930;28;21043;-73
2022/01/24 09:16:43;;;;;;;8.40;6.63;;;7.10;99.90;;;;;;5028980;28;20515;-72
2022/01/24 09:19:08;;;;;;;9.80;7.33;;;6.80;99.90;;;;;;5030081;28;20200;-71
2022/01/24 09:21:35;;;;;;;17.07;9.27;;;7.00;99.90;;;;;;5029126;28;20282;-72
2022/01/24 09:24:02;;;;;;;11.13;8.10;;;7.00;99.90;;;;;;5029271;28;20165;-71
2022/01/24 09:26:27;;;;;;;9.03;6.50;;;7.10;99.90;;;;;;5027249;28;20464;-72
2022/01/24 09:28:53;;;;;;;9.57;6.60;;;7.10;99.90;;;;;;5029439;28;20468;-72
2022/01/24 09:31:20;;;;;;;8.03;5.97;;;7.10;99.90;;;;;;5024031;28;20234;-71
2022/01/24 09:33:46;;;;;;;10.40;7.30;;;7.40;99.90;;;;;;5024635;28;20182;-72
2022/01/24 09:36:11;;;;;;;9.60;5.90;;;7.50;99.90;;;;;;5027486;28;20424;-71
2022/01/24 09:38:37;;;;;;;11.23;6.10;;;7.70;99.90;;;;;;5028639;28;20170;-72
2022/01/24 09:41:05;;;;;;;10.40;6.53;;;7.40;99.90;;;;;;5028253;28;20202;-71
2022/01/24 09:43:32;;;;;;;7.63;5.77;;;7.40;99.90;;;;;;5029279;28;20201;-72
2022/01/24 09:45:58;;;;;;;10.77;5.53;;;7.30;99.90;;;;;;5028400;28;20436;-71
2022/01/24 09:48:24;;;;;;;8.70;5.80;;;7.20;99.90;;;;;;5029894;28;20503;-71
2022/01/24 09:50:52;;;;;;;8.30;5.77;;;7.00;99.90;;;;;;5021489;28;20546;-71
2022/01/24 09:53:22;;;;;;;8.90;5.70;;;7.00;99.90;;;;;;5028940;28;20182;-71
2022/01/24 09:55:48;;;;;;;7.67;6.07;;;7.00;99.90;;;;;;5026779;28;20993;-72
2022/01/24 09:58:14;;;;;;;7.73;5.53;;;7.00;99.90;;;;;;5029760;28;20474;-73
2022/01/24 10:00:40;;;;;;;10.40;5.47;;;7.00;99.90;;;;;;5027060;28;20444;-72
2022/01/24 10:03:08;;;;;;;10.17;6.30;;;6.90;99.90;;;;;;5028789;28;20856;-73
2022/01/24 10:05:37;;;;;;;6.83;4.97;;;6.90;99.90;;;;;;5028022;28;20644;-71
2022/01/24 10:08:24;;;;;;;7.20;5.10;;;6.70;99.90;;;;;;5028127;28;20429;-72
2022/01/24 10:11:15;;;;;;;8.10;5.53;;;6.50;99.90;;;;;;5022992;28;20468;-72
2022/01/24 10:16:43;;;;;;;8.33;5.10;;;6.70;99.90;;;;;;5042358;28;20542;-72
2022/01/24 10:19:18;;;;;;;5.80;5.13;;;6.60;99.90;;;;;;5029196;28;20424;-72
2022/01/24 10:21:55;;;;;;;6.10;4.90;;;6.80;99.90;;;;;;5021515;28;20969;-72
2022/01/24 10:24:26;;;;;;;7.50;4.90;;;6.80;99.90;;;;;;5011570;28;20771;-72
2022/01/24 10:27:08;;;;;;;8.27;4.33;;;7.00;99.90;;;;;;5021308;28;20449;-74
2022/01/24 10:29:33;;;;;;;7.90;4.57;;;6.80;99.90;;;;;;5022378;28;20482;-72
2022/01/24 10:31:59;;;;;;;7.70;4.40;;;6.80;99.90;;;;;;5023730;28;20997;-73
2022/01/24 10:34:36;;;;;;;6.27;5.67;;;7.10;99.90;;;;;;5028733;28;20177;-73
2022/01/24 10:37:02;;;;;;;6.47;4.43;;;6.70;99.90;;;;;;5026750;28;20185;-72
2022/01/24 10:39:44;;;;;;;7.73;4.50;;;6.80;99.90;;;;;;5029368;28;20442;-72
2022/01/24 10:45:16;;;;;;;7.00;4.93;;;7.50;99.90;;;;;;5027478;28;20933;-71
2022/01/24 10:47:46;;;;;;;7.73;5.50;;;9.10;99.90;;;;;;5016176;28;20511;-72
2022/01/24 10:50:31;;;;;;;18.97;6.50;;;14.30;99.90;;;;;;5028048;28;20480;-71
2022/01/24 10:53:11;;;;;;;8.73;4.90;;;14.40;99.90;;;;;;5025446;28;20425;-72
2022/01/24 10:55:38;;;;;;;5.43;4.67;;;16.00;99.90;;;;;;5020418;28;20941;-72
2022/01/24 10:58:09;;;;;;;7.57;4.37;;;16.50;99.90;;;;;;5027722;28;20432;-72
2022/01/24 11:00:37;;;;;;;7.10;4.77;;;18.60;99.90;;;;;;5028005;28;20436;-73
2022/01/24 11:03:03;;;;;;;7.90;5.07;;;18.70;99.90;;;;;;5028194;28;20428;-73
2022/01/24 11:05:34;;;;;;;8.20;6.10;;;19.20;99.90;;;;;;5028582;28;20416;-72
2022/01/24 11:08:09;;;;;;;7.53;6.33;;;19.20;99.90;;;;;;5026250;28;21024;-72
2022/01/24 11:10:45;;;;;;;8.63;5.23;;;20.10;99.90;;;;;;5027285;28;20486;-73
2022/01/24 11:13:12;;;;;;;9.30;5.80;;;20.10;99.90;;;;;;5027755;28;20994;-73
2022/01/24 11:15:42;;;;;;;8.10;5.53;;;20.80;99.90;;;;;;5026745;28;20518;-71
2022/01/24 11:18:09;;;;;;;9.33;5.07;;;21.20;99.90;;;;;;5035250;28;20529;-71
2022/01/24 11:20:40;;;;;;;6.10;5.33;;;21.40;99.90;;;;;;5027634;28;20801;-71
2022/01/24 11:23:07;;;;;;;8.10;5.67;;;21.30;99.90;;;;;;5026754;28;20472;-71
2022/01/24 11:25:36;;;;;;;7.80;5.47;;;21.30;99.90;;;;;;5027638;28;20422;-71
2022/01/24 11:28:03;;;;;;;7.13;5.40;;;21.90;99.90;;;;;;5027400;28;20461;-71
2022/01/24 11:30:36;;;;;;;8.73;5.10;;;23.20;99.90;;;;;;5026290;28;20542;-71
2022/01/24 11:33:10;;;;;;;6.60;5.20;;;23.40;99.90;;;;;;5027388;28;20787;-71
2022/01/24 11:35:51;;;;;;;6.70;5.20;;;23.80;99.90;;;;;;5027421;28;20443;-71
2022/01/24 11:38:42;;;;;;;9.30;5.50;;;23.40;99.90;;;;;;5027876;28;20420;-71
2022/01/24 11:41:26;;;;;;;7.10;5.43;;;22.40;99.90;;;;;;5023930;28;20452;-71
2022/01/24 11:44:00;;;;;;;6.37;5.43;;;22.00;99.90;;;;;;5023863;28;20519;-70
2022/01/24 11:46:45;;;;;;;7.40;5.00;;;21.90;99.90;;;;;;5039076;28;20513;-71
2022/01/24 11:49:16;;;;;;;6.57;5.00;;;21.80;99.90;;;;;;5013753;28;20430;-69
2022/01/24 11:51:44;;;;;;;7.90;5.53;;;22.50;99.90;;;;;;5027329;28;20461;-71
2022/01/24 11:55:26;;;;;;;7.73;5.17;;;22.80;99.90;;;;;;5027719;28;20438;-71
2022/01/24 11:57:22;;;;;;;11.90;5.43;;;23.20;99.90;;;;;;5022839;28;20435;-70
2022/01/24 12:00:12;;;;;;;6.60;5.27;;;23.00;99.90;;;;;;5030857;28;20438;-70
2022/01/24 12:02:46;;;;;;;9.50;5.17;;;23.00;99.90;;;;;;5028101;28;20994;-71
2022/01/24 12:05:15;;;;;;;7.20;4.90;;;23.00;99.90;;;;;;5031063;28;20509;-71
2022/01/24 12:07:55;;;;;;;10.93;5.00;;;22.70;99.90;;;;;;5030738;28;20928;-71
2022/01/24 12:10:25;;;;;;;8.20;5.53;;;22.40;99.90;;;;;;5030245;28;21032;-69
2022/01/24 12:13:00;;;;;;;7.57;5.20;;;22.40;99.90;;;;;;5029733;28;20797;-71
2022/01/24 12:15:38;;;;;;;8.40;5.57;;;23.00;99.90;;;;;;5028094;28;20431;-70
2022/01/24 12:18:42;;;;;;;6.00;4.70;;;22.80;99.90;;;;;;5029718;28;20431;-72
2022/01/24 12:21:23;;;;;;;8.33;5.17;;;22.60;99.90;;;;;;5030159;28;20545;-71
2022/01/24 12:23:52;;;;;;;7.90;4.83;;;22.70;99.90;;;;;;5021025;28;20425;-71
2022/01/24 12:26:18;;;;;;;7.10;5.30;;;23.00;99.90;;;;;;5030389;28;20799;-70
2022/01/24 12:28:43;;;;;;;7.10;5.83;;;23.10;99.90;;;;;;5024396;28;20429;-71
2022/01/24 12:31:28;;;;;;;8.97;4.80;;;22.70;99.90;;;;;;5017679;28;20683;-70
2022/01/24 12:33:53;;;;;;;5.67;4.30;;;22.80;99.90;;;;;;5029545;28;20592;-71
2022/01/24 12:36:39;;;;;;;6.20;4.13;;;23.60;99.90;;;;;;5030100;28;20973;-71
2022/01/24 12:39:10;;;;;;;5.67;4.17;;;24.30;99.90;;;;;;5026045;28;20251;-71
2022/01/24 12:41:41;;;;;;;7.03;4.67;;;24.70;99.90;;;;;;5029838;28;21084;-72
2022/01/24 12:46:33;;;;;;;5.60;4.67;;;23.40;99.90;;;;;;5029955;28;20950;-71
2022/01/24 12:49:02;;;;;;;6.83;4.83;;;22.70;99.90;;;;;;5030777;28;20595;-71
2022/01/24 12:51:31;;;;;;;7.63;4.67;;;23.20;99.90;;;;;;5024011;28;20515;-71
2022/01/24 12:53:57;;;;;;;7.83;3.93;;;23.60;99.90;;;;;;5023502;28;20422;-71
2022/01/24 12:56:27;;;;;;;8.07;3.90;;;24.70;99.90;;;;;;5028914;28;20439;-71
2022/01/24 12:58:54;;;;;;;5.40;3.80;;;24.60;99.90;;;;;;5029259;28;20424;-71
2022/01/24 13:01:30;;;;;;;5.23;3.73;;;23.80;99.90;;;;;;5029762;28;21036;-71
2022/01/24 13:03:58;;;;;;;7.40;4.10;;;23.60;99.90;;;;;;5028530;28;20428;-71
2022/01/24 13:06:35;;;;;;;4.67;4.00;;;23.30;99.90;;;;;;5029389;28;20486;-71
2022/01/24 13:09:02;;;;;;;5.60;3.53;;;23.30;99.90;;;;;;5027998;28;20523;-70
2022/01/24 13:11:29;;;;;;;6.70;3.93;;;22.80;99.90;;;;;;5028999;28;20468;-71
2022/01/24 13:14:11;;;;;;;5.70;3.90;;;22.70;99.90;;;;;;5029630;28;20411;-72
2022/01/24 13:22:24;;;;;;;10.07;4.03;;;22.10;99.90;;;;;;5022977;28;20448;-71
2022/01/24 13:25:16;;;;;;;4.37;3.57;;;20.70;99.90;;;;;;5029215;28;20512;-72
2022/01/24 13:27:48;;;;;;;7.70;4.37;;;18.30;99.90;;;;;;5008711;28;20426;-71
2022/01/24 13:30:59;;;;;;;6.57;4.30;;;14.00;99.90;;;;;;5026493;28;20460;-68
2022/01/24 13:33:26;;;;;;;5.83;3.87;;;12.50;99.90;;;;;;4985845;28;20872;-68
2022/01/24 13:36:00;;;;;;;5.00;3.30;;;12.50;99.90;;;;;;4986446;28;20463;-70
2022/01/24 13:38:32;;;;;;;4.40;3.00;;;11.80;99.90;;;;;;5011017;28;20431;-70
2022/01/24 13:44:01;;;;;;;11.47;4.53;;;10.90;99.90;;;;;;5019889;28;21948;-68
2022/01/24 13:46:38;;;;;;;4.17;3.17;;;10.70;99.90;;;;;;5025156;28;21020;-67
2022/01/24 13:49:08;;;;;;;4.50;3.40;;;10.60;99.90;;;;;;5028762;28;21222;-70
2022/01/24 13:51:49;;;;;;;3.17;2.87;;;10.30;99.90;;;;;;5027722;28;20468;-70
2022/01/24 13:54:18;;;;;;;4.47;3.40;;;10.30;99.90;;;;;;5009323;28;20469;-71
2022/01/24 13:56:46;;;;;;;8.60;3.93;;;10.10;99.90;;;;;;5024845;28;20466;-68
2022/01/24 13:59:21;;;;;;;5.67;3.63;;;10.20;99.90;;;;;;5028787;28;20459;-70
2022/01/24 14:02:32;;;;;;;5.60;3.57;;;10.20;99.90;;;;;;5026690;28;20444;-72
2022/01/24 14:05:02;;;;;;;6.70;3.87;;;10.10;99.90;;;;;;4986776;28;20540;-71
2022/01/24 14:07:41;;;;;;;5.07;3.50;;;9.90;99.90;;;;;;4986053;28;20426;-73
2022/01/24 14:10:10;;;;;;;4.23;3.27;;;10.20;99.90;;;;;;5008825;28;20455;-71
2022/01/24 14:12:53;;;;;;;9.13;3.47;;;9.60;99.90;;;;;;5025958;28;20444;-70
2022/01/24 14:15:38;;;;;;;5.80;3.70;;;9.40;99.90;;;;;;5028097;28;20942;-71
2022/01/24 14:18:22;;;;;;;6.10;3.37;;;9.40;99.90;;;;;;5028966;28;20494;-71
2022/01/24 14:20:51;;;;;;;5.93;3.60;;;9.30;99.90;;;;;;5025356;28;20441;-71
2022/01/24 14:23:22;;;;;;;4.50;3.73;;;9.30;99.90;;;;;;5026429;28;20429;-71
2022/01/24 14:25:48;;;;;;;7.90;3.97;;;9.20;99.90;;;;;;5019075;28;20425;-71
2022/01/24 14:28:14;;;;;;;6.93;4.07;;;9.10;99.90;;;;;;5025770;28;20859;-71
2022/01/24 14:30:43;;;;;;;7.73;4.50;;;8.90;99.90;;;;;;5026655;28;20201;-71
2022/01/24 14:33:21;;;;;;;6.00;4.00;;;8.90;99.90;;;;;;5027359;28;20564;-69
2022/01/24 14:36:00;;;;;;;5.67;3.70;;;8.90;99.90;;;;;;5028027;28;20914;-71
2022/01/24 14:38:35;;;;;;;4.70;3.97;;;8.90;99.90;;;;;;5028500;28;20902;-71
2022/01/24 14:41:07;;;;;;;4.87;4.07;;;8.80;99.90;;;;;;5026221;28;20492;-70